CFG7MC EDDM-LIEO
Flight info
| Callsign | CFG7MC |
|---|---|
| Flight time | 1h 21m |
| Altitude | 35000 |
| Route | TURBU6E TURBU Y107 TOBSO DCT BAKOR DCT IPLUB DCT DEDOM DCT BATOX |
| Aircraft | A321/M-SDE2E3FGHIJ1RWXYZ/LB1 |
Departure
| Time | 2026-05-04 10:39 |
|---|---|
| Airport | Munich Airport (EDDM) |
Arrival
| Time | 2026-05-04 12:00 |
|---|---|
| Airport | Olbia Costa Smeralda Airport (LIEO) |
| Time | Latitude | Longitude | Altitude | Speed | Heading |
|---|---|---|---|---|---|
| 2026-05-04 10:00 | 48.34948 | 11.78368 | 1486 ft | 0 kts | 83° |
| 2026-05-04 10:26 | 48.34947 | 11.78352 | 1474 ft | 4 kts | 83° |
| 2026-05-04 10:27 | 48.34944 | 11.78314 | 1476 ft | 2 kts | 83° |
| 2026-05-04 10:27 | 48.34944 | 11.78283 | 1492 ft | 4 kts | 125° |
| 2026-05-04 10:27 | 48.34963 | 11.78264 | 1471 ft | 3 kts | 173° |
| 2026-05-04 10:27 | 48.34986 | 11.78260 | 1476 ft | 1 kts | 173° |
| 2026-05-04 10:32 | 48.34810 | 11.78040 | 1478 ft | 15 kts | 178° |
| 2026-05-04 10:33 | 48.34705 | 11.78048 | 1472 ft | 15 kts | 193° |
| 2026-05-04 10:33 | 48.34665 | 11.77931 | 1481 ft | 13 kts | 263° |
| 2026-05-04 10:33 | 48.34656 | 11.77793 | 1485 ft | 15 kts | 264° |
| 2026-05-04 10:33 | 48.34642 | 11.77620 | 1485 ft | 18 kts | 264° |
| 2026-05-04 10:34 | 48.34626 | 11.77416 | 1480 ft | 21 kts | 264° |
| 2026-05-04 10:34 | 48.34608 | 11.77183 | 1481 ft | 24 kts | 264° |
| 2026-05-04 10:34 | 48.34589 | 11.76933 | 1485 ft | 23 kts | 263° |
| 2026-05-04 10:34 | 48.34570 | 11.76697 | 1485 ft | 22 kts | 263° |
| 2026-05-04 10:35 | 48.34554 | 11.76474 | 1482 ft | 21 kts | 263° |
| 2026-05-04 10:35 | 48.34538 | 11.76265 | 1485 ft | 19 kts | 263° |
| 2026-05-04 10:35 | 48.34523 | 11.76070 | 1485 ft | 18 kts | 263° |
| 2026-05-04 10:35 | 48.34510 | 11.75890 | 1475 ft | 17 kts | 263° |
| 2026-05-04 10:36 | 48.34497 | 11.75724 | 1485 ft | 15 kts | 263° |
| 2026-05-04 10:36 | 48.34486 | 11.75572 | 1478 ft | 14 kts | 263° |
| 2026-05-04 10:36 | 48.34476 | 11.75435 | 1485 ft | 12 kts | 263° |
| 2026-05-04 10:36 | 48.34467 | 11.75313 | 1485 ft | 11 kts | 263° |
| 2026-05-04 10:37 | 48.34433 | 11.75224 | 1485 ft | 12 kts | 201° |
| 2026-05-04 10:37 | 48.34331 | 11.75229 | 1485 ft | 15 kts | 174° |
| 2026-05-04 10:37 | 48.34230 | 11.75246 | 1478 ft | 14 kts | 173° |
| 2026-05-04 10:37 | 48.34139 | 11.75262 | 1474 ft | 13 kts | 173° |
| 2026-05-04 10:39 | 48.34518 | 11.80619 | 2248 ft | 166 kts | 83° |
| 2026-05-04 10:39 | 48.34647 | 11.82364 | 2814 ft | 173 kts | 83° |
| 2026-05-04 10:39 | 48.34780 | 11.84266 | 3014 ft | 193 kts | 83° |
| 2026-05-04 10:40 | 48.34934 | 11.86399 | 3174 ft | 218 kts | 83° |
| 2026-05-04 10:40 | 48.35109 | 11.88769 | 3645 ft | 233 kts | 83° |
| 2026-05-04 10:40 | 48.35290 | 11.91179 | 4420 ft | 236 kts | 84° |
| 2026-05-04 10:40 | 48.35439 | 11.93652 | 5165 ft | 240 kts | 93° |
| 2026-05-04 10:41 | 48.34941 | 11.96030 | 5825 ft | 244 kts | 127° |
| 2026-05-04 10:41 | 48.33700 | 11.97775 | 6538 ft | 247 kts | 143° |
| 2026-05-04 10:41 | 48.32338 | 11.99362 | 7301 ft | 248 kts | 143° |
| 2026-05-04 10:41 | 48.30958 | 12.00961 | 7991 ft | 252 kts | 144° |
| 2026-05-04 10:42 | 48.29417 | 12.02217 | 8699 ft | 254 kts | 163° |
| 2026-05-04 10:42 | 48.27653 | 12.02716 | 9105 ft | 268 kts | 181° |
| 2026-05-04 10:42 | 48.25754 | 12.02538 | 9624 ft | 277 kts | 187° |
| 2026-05-04 10:42 | 48.23819 | 12.02170 | 10257 ft | 283 kts | 188° |
| 2026-05-04 10:43 | 48.21798 | 12.01717 | 10450 ft | 305 kts | 189° |
| 2026-05-04 10:44 | 48.05048 | 11.98484 | 14012 ft | 362 kts | 184° |
| 2026-05-04 10:45 | 48.02518 | 11.98317 | 14565 ft | 366 kts | 184° |
| 2026-05-04 10:45 | 47.99959 | 11.98165 | 15096 ft | 370 kts | 184° |
| 2026-05-04 10:45 | 47.97377 | 11.98012 | 15629 ft | 373 kts | 184° |
| 2026-05-04 10:45 | 47.94768 | 11.97850 | 16167 ft | 377 kts | 184° |
| 2026-05-04 10:46 | 47.92136 | 11.97678 | 16703 ft | 380 kts | 184° |
| 2026-05-04 10:46 | 47.89481 | 11.97492 | 17232 ft | 383 kts | 185° |
| 2026-05-04 10:46 | 47.86811 | 11.97289 | 17761 ft | 386 kts | 185° |
| 2026-05-04 10:46 | 47.84120 | 11.97077 | 18251 ft | 389 kts | 185° |
| 2026-05-04 10:47 | 47.81402 | 11.96860 | 18690 ft | 392 kts | 185° |
| 2026-05-04 10:47 | 47.78670 | 11.96639 | 19134 ft | 395 kts | 185° |
| 2026-05-04 10:47 | 47.75921 | 11.96418 | 19557 ft | 397 kts | 185° |
| 2026-05-04 10:47 | 47.73155 | 11.96194 | 19979 ft | 400 kts | 185° |
| 2026-05-04 10:49 | 47.53266 | 11.94751 | 22858 ft | 421 kts | 184° |
| 2026-05-04 10:49 | 47.50331 | 11.94538 | 23261 ft | 424 kts | 184° |
| 2026-05-04 10:50 | 47.47375 | 11.94322 | 23646 ft | 427 kts | 184° |
| 2026-05-04 10:51 | 47.27421 | 11.90884 | 25917 ft | 440 kts | 190° |
| 2026-05-04 10:52 | 47.24382 | 11.90238 | 26238 ft | 443 kts | 189° |
| 2026-05-04 10:52 | 47.21313 | 11.89618 | 26565 ft | 445 kts | 189° |
| 2026-05-04 10:52 | 47.18240 | 11.89016 | 26884 ft | 447 kts | 189° |
| 2026-05-04 10:54 | 46.96431 | 11.84393 | 29135 ft | 456 kts | 194° |
| 2026-05-04 10:54 | 46.93380 | 11.83390 | 29506 ft | 455 kts | 195° |
| 2026-05-04 10:56 | 46.71965 | 11.76341 | 32202 ft | 444 kts | 194° |
| 2026-05-04 10:56 | 46.68943 | 11.75403 | 32590 ft | 443 kts | 194° |
| 2026-05-04 10:56 | 46.65937 | 11.74466 | 32982 ft | 441 kts | 194° |
| 2026-05-04 10:57 | 46.62937 | 11.73528 | 33376 ft | 439 kts | 194° |
| 2026-05-04 10:57 | 46.59958 | 11.72576 | 33749 ft | 437 kts | 195° |
| 2026-05-04 10:57 | 46.57017 | 11.71502 | 34107 ft | 436 kts | 197° |
| 2026-05-04 10:57 | 46.54102 | 11.70318 | 34414 ft | 434 kts | 198° |
| 2026-05-04 10:58 | 46.51203 | 11.69082 | 34702 ft | 434 kts | 199° |
| 2026-05-04 10:58 | 46.48314 | 11.67835 | 34975 ft | 433 kts | 198° |
| 2026-05-04 10:58 | 46.45421 | 11.66601 | 35070 ft | 432 kts | 198° |
| 2026-05-04 10:59 | 46.39650 | 11.64219 | 35088 ft | 431 kts | 198° |
| 2026-05-04 10:59 | 46.33874 | 11.61901 | 35093 ft | 431 kts | 197° |
| 2026-05-04 11:00 | 46.28095 | 11.59597 | 35085 ft | 431 kts | 198° |
| 2026-05-04 11:02 | 46.05022 | 11.50372 | 35110 ft | 431 kts | 198° |
| 2026-05-04 11:05 | 45.61572 | 11.33190 | 35120 ft | 432 kts | 197° |
| 2026-05-04 11:06 | 45.55779 | 11.30919 | 35115 ft | 432 kts | 197° |
| 2026-05-04 11:06 | 45.49976 | 11.28649 | 35116 ft | 433 kts | 197° |
| 2026-05-04 11:10 | 45.09265 | 11.12878 | 35113 ft | 434 kts | 197° |
| 2026-05-04 11:12 | 44.85917 | 11.03944 | 35111 ft | 435 kts | 197° |
| 2026-05-04 11:12 | 44.80072 | 11.01713 | 35108 ft | 435 kts | 197° |
| 2026-05-04 11:13 | 44.74229 | 10.99488 | 35109 ft | 435 kts | 197° |
| 2026-05-04 11:13 | 44.68377 | 10.97270 | 35115 ft | 435 kts | 197° |
| 2026-05-04 11:14 | 44.62525 | 10.95062 | 35113 ft | 435 kts | 197° |
| 2026-05-04 11:16 | 44.39160 | 10.86251 | 35116 ft | 436 kts | 197° |
| 2026-05-04 11:16 | 44.33298 | 10.84053 | 35116 ft | 437 kts | 197° |
| 2026-05-04 11:17 | 44.27426 | 10.81859 | 35123 ft | 437 kts | 197° |
| 2026-05-04 11:19 | 44.03234 | 10.76962 | 35142 ft | 440 kts | 190° |
| 2026-05-04 11:19 | 43.97164 | 10.75864 | 35147 ft | 440 kts | 190° |
| 2026-05-04 11:20 | 43.91092 | 10.74772 | 35147 ft | 440 kts | 190° |
| 2026-05-04 11:20 | 43.85021 | 10.73682 | 35153 ft | 440 kts | 191° |
| 2026-05-04 11:22 | 43.60720 | 10.69309 | 35152 ft | 441 kts | 191° |
| 2026-05-04 11:23 | 43.54639 | 10.68234 | 35146 ft | 441 kts | 191° |
| 2026-05-04 11:25 | 43.33328 | 10.64432 | 35134 ft | 441 kts | 192° |
| 2026-05-04 11:25 | 43.27273 | 10.63365 | 35141 ft | 442 kts | 192° |
| 2026-05-04 11:27 | 42.99826 | 10.58547 | 35152 ft | 442 kts | 192° |
| 2026-05-04 11:28 | 42.93722 | 10.57479 | 35139 ft | 442 kts | 192° |
| 2026-05-04 11:28 | 42.87663 | 10.56424 | 35149 ft | 441 kts | 193° |
| 2026-05-04 11:29 | 42.81567 | 10.55363 | 35152 ft | 441 kts | 193° |
| 2026-05-04 11:29 | 42.75487 | 10.54304 | 35155 ft | 441 kts | 193° |
| 2026-05-04 11:33 | 42.33160 | 10.47016 | 35142 ft | 440 kts | 193° |
| 2026-05-04 11:33 | 42.27080 | 10.45976 | 35138 ft | 440 kts | 193° |
| 2026-05-04 11:34 | 42.20998 | 10.44938 | 34987 ft | 439 kts | 193° |
| 2026-05-04 11:34 | 42.17963 | 10.44421 | 34353 ft | 440 kts | 193° |
| 2026-05-04 11:34 | 42.14928 | 10.43903 | 33639 ft | 441 kts | 193° |
| 2026-05-04 11:35 | 42.11879 | 10.43360 | 32858 ft | 441 kts | 196° |
| 2026-05-04 11:35 | 42.08937 | 10.42492 | 32096 ft | 439 kts | 199° |
| 2026-05-04 11:35 | 42.05952 | 10.41553 | 31310 ft | 442 kts | 199° |
| 2026-05-04 11:35 | 42.02940 | 10.40616 | 30524 ft | 445 kts | 199° |
| 2026-05-04 11:36 | 41.99913 | 10.39680 | 29650 ft | 448 kts | 199° |
| 2026-05-04 11:36 | 41.96864 | 10.38738 | 28724 ft | 451 kts | 198° |
| 2026-05-04 11:36 | 41.93814 | 10.37798 | 28047 ft | 448 kts | 198° |
| 2026-05-04 11:36 | 41.90790 | 10.36874 | 27392 ft | 444 kts | 198° |
| 2026-05-04 11:37 | 41.87789 | 10.35956 | 26767 ft | 441 kts | 198° |
| 2026-05-04 11:37 | 41.84812 | 10.35044 | 26162 ft | 437 kts | 197° |
| 2026-05-04 11:37 | 41.81862 | 10.34135 | 25569 ft | 434 kts | 197° |
| 2026-05-04 11:37 | 41.78932 | 10.33227 | 24989 ft | 430 kts | 197° |
| 2026-05-04 11:38 | 41.76029 | 10.32325 | 24418 ft | 427 kts | 197° |
| 2026-05-04 11:38 | 41.73142 | 10.31433 | 23855 ft | 424 kts | 196° |
| 2026-05-04 11:38 | 41.70279 | 10.30558 | 23215 ft | 421 kts | 196° |
| 2026-05-04 11:38 | 41.67433 | 10.29692 | 22594 ft | 417 kts | 196° |
| 2026-05-04 11:39 | 41.64622 | 10.28837 | 22001 ft | 413 kts | 196° |
| 2026-05-04 11:39 | 41.62775 | 10.28274 | 21612 ft | 410 kts | 196° |
| 2026-05-04 11:40 | 41.46627 | 10.23324 | 18417 ft | 384 kts | 195° |
| 2026-05-04 11:41 | 41.44030 | 10.22534 | 17816 ft | 381 kts | 195° |
| 2026-05-04 11:41 | 41.41448 | 10.21751 | 17239 ft | 378 kts | 195° |
| 2026-05-04 11:41 | 41.38897 | 10.20978 | 16679 ft | 375 kts | 195° |
| 2026-05-04 11:41 | 41.36358 | 10.20207 | 16302 ft | 373 kts | 195° |
| 2026-05-04 11:42 | 41.33830 | 10.19434 | 16096 ft | 372 kts | 195° |
| 2026-05-04 11:42 | 41.31301 | 10.18665 | 16119 ft | 373 kts | 195° |
| 2026-05-04 11:42 | 41.28773 | 10.17901 | 16115 ft | 372 kts | 195° |
| 2026-05-04 11:42 | 41.26248 | 10.17141 | 16124 ft | 373 kts | 195° |
| 2026-05-04 11:43 | 41.23754 | 10.16227 | 16122 ft | 370 kts | 203° |
| 2026-05-04 11:43 | 41.21436 | 10.14796 | 16123 ft | 367 kts | 212° |
| 2026-05-04 11:43 | 41.19344 | 10.12863 | 16114 ft | 365 kts | 221° |
| 2026-05-04 11:43 | 41.17524 | 10.10522 | 16116 ft | 365 kts | 227° |
| 2026-05-04 11:44 | 41.15763 | 10.08099 | 16117 ft | 364 kts | 227° |
| 2026-05-04 11:44 | 41.13999 | 10.05698 | 16103 ft | 364 kts | 227° |
| 2026-05-04 11:44 | 41.12223 | 10.03294 | 16096 ft | 364 kts | 227° |
| 2026-05-04 11:44 | 41.10473 | 10.00931 | 16114 ft | 365 kts | 227° |
| 2026-05-04 11:45 | 41.08697 | 9.98528 | 16115 ft | 364 kts | 227° |
| 2026-05-04 11:45 | 41.06925 | 9.96128 | 16107 ft | 364 kts | 227° |
| 2026-05-04 11:45 | 41.05163 | 9.93739 | 16108 ft | 364 kts | 227° |
| 2026-05-04 11:45 | 41.03387 | 9.91333 | 16106 ft | 364 kts | 227° |
| 2026-05-04 11:46 | 41.01622 | 9.88944 | 15838 ft | 360 kts | 227° |
| 2026-05-04 11:46 | 40.99873 | 9.86582 | 15321 ft | 358 kts | 227° |
| 2026-05-04 11:46 | 40.98136 | 9.84238 | 14798 ft | 356 kts | 227° |
| 2026-05-04 11:46 | 40.96410 | 9.81906 | 14281 ft | 354 kts | 226° |
| 2026-05-04 11:47 | 40.94694 | 9.79590 | 13787 ft | 351 kts | 226° |
| 2026-05-04 11:47 | 40.92999 | 9.77303 | 13302 ft | 346 kts | 226° |
| 2026-05-04 11:47 | 40.91345 | 9.75077 | 13163 ft | 332 kts | 226° |
| 2026-05-04 11:47 | 40.89753 | 9.72938 | 13030 ft | 319 kts | 226° |
| 2026-05-04 11:48 | 40.88224 | 9.70886 | 12902 ft | 307 kts | 226° |
| 2026-05-04 11:48 | 40.86751 | 9.68911 | 12772 ft | 296 kts | 227° |
| 2026-05-04 11:48 | 40.85333 | 9.67009 | 12640 ft | 285 kts | 227° |
| 2026-05-04 11:48 | 40.83967 | 9.65178 | 12513 ft | 275 kts | 227° |
| 2026-05-04 11:49 | 40.82646 | 9.63410 | 12388 ft | 266 kts | 227° |
| 2026-05-04 11:49 | 40.81366 | 9.61698 | 12207 ft | 259 kts | 227° |
| 2026-05-04 11:49 | 40.80108 | 9.60017 | 11911 ft | 256 kts | 227° |
| 2026-05-04 11:49 | 40.78938 | 9.58263 | 11578 ft | 253 kts | 236° |
| 2026-05-04 11:50 | 40.77947 | 9.56347 | 11242 ft | 253 kts | 236° |
| 2026-05-04 11:50 | 40.76954 | 9.54441 | 10922 ft | 251 kts | 236° |
| 2026-05-04 11:50 | 40.75964 | 9.52546 | 10573 ft | 250 kts | 236° |
| 2026-05-04 11:50 | 40.74977 | 9.50661 | 10248 ft | 249 kts | 236° |
| 2026-05-04 11:51 | 40.73996 | 9.48787 | 9936 ft | 246 kts | 236° |
| 2026-05-04 11:51 | 40.73023 | 9.46935 | 9566 ft | 245 kts | 236° |
| 2026-05-04 11:51 | 40.72064 | 9.45115 | 9204 ft | 244 kts | 235° |
| 2026-05-04 11:51 | 40.71099 | 9.43282 | 8822 ft | 243 kts | 235° |
| 2026-05-04 11:52 | 40.70126 | 9.41431 | 8463 ft | 242 kts | 235° |
| 2026-05-04 11:52 | 40.69183 | 9.39638 | 8125 ft | 241 kts | 235° |
| 2026-05-04 11:52 | 40.68231 | 9.37830 | 7774 ft | 240 kts | 235° |
| 2026-05-04 11:52 | 40.67281 | 9.36029 | 7427 ft | 239 kts | 235° |
| 2026-05-04 11:53 | 40.66382 | 9.34190 | 7100 ft | 239 kts | 246° |
| 2026-05-04 11:53 | 40.66187 | 9.32051 | 6789 ft | 241 kts | 280° |
| 2026-05-04 11:53 | 40.66994 | 9.30124 | 6442 ft | 249 kts | 315° |
| 2026-05-04 11:53 | 40.68391 | 9.28740 | 6072 ft | 250 kts | 321° |
| 2026-05-04 11:55 | 40.77489 | 9.28182 | 4746 ft | 228 kts | 57° |
| 2026-05-04 11:55 | 40.78378 | 9.29896 | 4389 ft | 223 kts | 57° |
| 2026-05-04 11:56 | 40.79246 | 9.31547 | 4041 ft | 215 kts | 58° |
| 2026-05-04 11:56 | 40.80082 | 9.33133 | 3721 ft | 206 kts | 57° |
| 2026-05-04 11:56 | 40.80890 | 9.34667 | 3410 ft | 200 kts | 58° |
| 2026-05-04 11:56 | 40.81666 | 9.36140 | 3101 ft | 189 kts | 57° |
| 2026-05-04 11:57 | 40.82398 | 9.37530 | 2824 ft | 180 kts | 58° |
| 2026-05-04 11:57 | 40.83095 | 9.38857 | 2537 ft | 172 kts | 57° |
| 2026-05-04 11:57 | 40.83766 | 9.40131 | 2307 ft | 165 kts | 57° |
| 2026-05-04 11:57 | 40.84396 | 9.41330 | 2045 ft | 154 kts | 59° |
| 2026-05-04 11:58 | 40.84996 | 9.42472 | 1804 ft | 149 kts | 58° |
| 2026-05-04 11:58 | 40.85582 | 9.43588 | 1573 ft | 147 kts | 58° |
| 2026-05-04 11:58 | 40.86160 | 9.44689 | 1359 ft | 144 kts | 58° |
| 2026-05-04 11:58 | 40.86743 | 9.45771 | 1131 ft | 145 kts | 57° |
| 2026-05-04 11:59 | 40.87318 | 9.46854 | 925 ft | 144 kts | 61° |
| 2026-05-04 11:59 | 40.87877 | 9.47938 | 716 ft | 140 kts | 59° |
| 2026-05-04 11:59 | 40.88422 | 9.48990 | 469 ft | 139 kts | 59° |
| 2026-05-04 11:59 | 40.88976 | 9.50050 | 212 ft | 141 kts | 59° |
| 2026-05-04 12:00 | 40.89529 | 9.51107 | 41 ft | 135 kts | 60° |
| 2026-05-04 12:00 | 40.89973 | 9.51970 | 33 ft | 80 kts | 56° |
| 2026-05-04 12:00 | 40.90169 | 9.52351 | 35 ft | 41 kts | 57° |
| 2026-05-04 12:00 | 40.90295 | 9.52587 | 34 ft | 28 kts | 55° |
| 2026-05-04 12:01 | 40.90382 | 9.52691 | 34 ft | 13 kts | 18° |
| 2026-05-04 12:01 | 40.90449 | 9.52650 | 34 ft | 10 kts | 288° |
| 2026-05-04 12:02 | 40.90233 | 9.52071 | 33 ft | 19 kts | 236° |
| 2026-05-04 12:03 | 40.90178 | 9.51917 | 34 ft | 18 kts | 269° |
| 2026-05-04 12:03 | 40.90211 | 9.51799 | 34 ft | 10 kts | 312° |
| 2026-05-04 12:03 | 40.90200 | 9.51722 | 34 ft | 10 kts | 236° |
| 2026-05-04 12:03 | 40.90180 | 9.51656 | 34 ft | 6 kts | 290° |
| 2026-05-04 12:04 | 40.90197 | 9.51643 | 33 ft | 4 kts | 333° |
| 2026-05-04 12:04 | 40.90217 | 9.51624 | 34 ft | 2 kts | 325° |
| 2026-05-04 12:04 | 40.90221 | 9.51620 | 34 ft | 0 kts | 325° |
| 2026-05-04 12:04 | 40.90222 | 9.51620 | 34 ft | 0 kts | 325° |